createdAt,value
2022-08-01T00:01:14.797Z,99120.16
2022-08-01T00:03:42.178Z,99116.91
2022-08-01T00:06:09.463Z,99119.63
2022-08-01T00:08:36.582Z,99109.91
2022-08-01T00:11:03.734Z,99119.06
2022-08-01T00:13:31.374Z,99123.94
2022-08-01T00:15:58.471Z,99116.91
2022-08-01T00:18:25.574Z,99113.97
2022-08-01T00:20:52.856Z,99114.47
2022-08-01T00:23:19.973Z,99119.56
2022-08-01T00:25:47.023Z,99124.97
2022-08-01T00:28:14.634Z,99123.34
2022-08-01T00:30:41.664Z,99116.03
2022-08-01T00:33:08.871Z,99117.97
2022-08-01T00:35:36.355Z,99120.91
2022-08-01T00:38:03.759Z,99120.13
2022-08-01T00:40:30.802Z,99111.47
2022-08-01T00:42:58.507Z,99112.00
2022-08-01T00:45:25.586Z,99114.16
2022-08-01T00:47:55.288Z,99113.59
2022-08-01T00:50:24.866Z,99111.44
2022-08-01T00:52:52.869Z,99114.41
2022-08-01T00:55:21.063Z,99117.38
2022-08-01T00:58:05.008Z,99111.19
2022-08-01T01:00:52.817Z,99109.81
2022-08-01T01:03:43.309Z,99113.03
2022-08-01T01:07:10.706Z,99115.19
2022-08-01T01:10:01.352Z,99115.19
2022-08-01T01:12:55.745Z,99120.31
2022-08-01T01:15:42.525Z,99119.50
2022-08-01T01:18:15.483Z,99112.50
2022-08-01T01:20:50.585Z,99114.66
2022-08-01T01:23:46.850Z,99113.00
2022-08-01T01:27:08.425Z,99109.78
2022-08-01T01:29:58.998Z,99108.16
2022-08-01T01:32:42.769Z,99114.63
2022-08-01T01:35:25.168Z,99111.41
2022-08-01T01:38:02.650Z,99114.09
2022-08-01T01:40:32.133Z,99117.03
2022-08-01T01:43:00.838Z,99110.84
2022-08-01T01:45:30.419Z,99123.75
2022-08-01T01:47:59.672Z,99121.63
2022-08-01T01:50:29.550Z,99119.97
2022-08-01T01:52:59.049Z,99123.75
2022-08-01T01:55:27.829Z,99118.63
2022-08-01T01:57:57.746Z,99120.78
2022-08-01T02:00:26.621Z,99127.50
2022-08-01T02:02:57.811Z,99117.25
2022-08-01T02:05:28.974Z,99117.78
2022-08-01T02:12:39.951Z,99122.59
2022-08-01T02:15:10.322Z,99108.56
2022-08-01T02:17:49.728Z,99119.06
2022-08-01T02:20:18.646Z,99117.69
2022-08-01T02:22:55.985Z,99119.03
2022-08-01T02:26:11.177Z,99116.06
2022-08-01T02:28:38.988Z,99121.97
2022-08-01T02:31:15.290Z,99117.09
2022-08-01T02:33:49.625Z,99113.88
2022-08-01T02:36:32.468Z,99123.28
2022-08-01T02:39:07.539Z,99126.25
2022-08-01T02:41:43.283Z,99121.38
2022-08-01T02:44:21.095Z,99125.41
2022-08-01T02:46:58.675Z,99126.72
2022-08-01T02:49:40.204Z,99127.22
2022-08-01T02:52:16.595Z,99125.84
2022-08-01T02:54:48.659Z,99119.09
2022-08-01T02:57:19.558Z,99125.03
2022-08-01T02:59:50.741Z,99136.03
2022-08-01T03:02:27.604Z,99127.69
2022-08-01T03:04:58.397Z,99128.22
2022-08-01T03:07:34.264Z,99126.56
2022-08-01T03:19:47.159Z,99131.88
2022-08-01T03:26:48.876Z,99121.06
2022-08-01T03:29:26.510Z,99124.84
2022-08-01T03:31:55.450Z,99130.75
2022-08-01T03:43:51.956Z,99138.22
2022-08-01T03:46:30.045Z,99149.00
2022-08-01T03:49:07.382Z,99141.19
2022-08-01T03:51:37.002Z,99152.75
2022-08-01T03:54:07.614Z,99152.75
2022-08-01T03:56:37.520Z,99153.28
2022-08-01T03:59:06.799Z,99155.97
2022-08-01T04:01:35.487Z,99157.03
2022-08-01T04:04:06.165Z,99156.53
2022-08-01T04:06:33.741Z,99164.59
2022-08-01T04:09:01.865Z,99160.81
2022-08-01T04:11:29.301Z,99168.66
2022-08-01T04:13:57.781Z,99159.25
2022-08-01T04:16:25.694Z,99161.69
2022-08-01T04:18:53.169Z,99170.06
2022-08-01T04:21:30.036Z,99165.22
2022-08-01T04:24:05.898Z,99166.84
2022-08-01T04:26:38.576Z,99166.84
2022-08-01T04:29:09.126Z,99165.22
2022-08-01T04:31:46.218Z,99168.47
2022-08-01T04:34:21.174Z,99161.44
2022-08-01T04:36:51.086Z,99161.44
2022-08-01T04:39:20.867Z,99160.94
2022-08-01T04:41:50.338Z,99156.09
2022-08-01T04:44:17.583Z,99164.22
2022-08-01T04:46:46.570Z,99169.09
2022-08-01T04:49:17.638Z,99158.66
2022-08-01T04:51:58.590Z,99159.53
2022-08-01T04:54:31.152Z,99158.56
2022-08-01T04:57:01.331Z,99154.84
2022-08-01T04:59:41.452Z,99157.34
2022-08-01T05:02:14.832Z,99149.06
2022-08-01T05:04:44.811Z,99154.00
2022-08-01T05:07:14.035Z,99146.50
2022-08-01T05:09:43.070Z,99151.38
2022-08-01T05:12:11.890Z,99147.34
2022-08-01T05:14:39.960Z,99151.47
2022-08-01T05:17:08.992Z,99151.47
2022-08-01T05:19:39.245Z,99151.75
2022-08-01T05:22:09.613Z,99149.88
2022-08-01T05:24:40.276Z,99143.34
2022-08-01T05:27:11.656Z,99145.75
2022-08-01T05:29:44.568Z,99149.25
2022-08-01T05:32:12.607Z,99158.34
2022-08-01T05:34:39.584Z,99146.41
2022-08-01T05:37:06.798Z,99149.34
2022-08-01T05:39:34.215Z,99143.63
2022-08-01T05:42:03.811Z,99145.16
2022-08-01T05:44:31.178Z,99145.25
2022-08-01T05:46:58.602Z,99144.56
2022-08-01T05:49:26.074Z,99152.19
2022-08-01T05:51:53.615Z,99141.16
2022-08-01T05:54:21.117Z,99134.88
2022-08-01T05:56:48.097Z,99131.88
2022-08-01T05:59:15.377Z,99128.03
2022-08-01T06:01:43.185Z,99134.00
2022-08-01T06:04:12.469Z,99134.59
2022-08-01T06:06:39.485Z,99141.94
2022-08-01T06:09:06.970Z,99136.38
2022-08-01T06:11:33.963Z,99136.25
2022-08-01T06:14:01.077Z,99135.09
2022-08-01T06:16:28.559Z,99135.53
2022-08-01T06:18:56.971Z,99125.06
2022-08-01T06:21:24.440Z,99128.91
2022-08-01T06:23:51.869Z,99119.03
2022-08-01T06:26:20.540Z,99125.38
2022-08-01T06:28:48.135Z,99131.72
2022-08-01T06:31:16.624Z,99119.22
2022-08-01T06:33:43.685Z,99123.41
2022-08-01T06:36:10.755Z,99123.72
2022-08-01T06:38:38.933Z,99124.19
2022-08-01T07:04:17.245Z,99126.34
2022-08-01T07:06:44.956Z,99135.53
2022-08-01T07:09:14.331Z,99126.19
2022-08-01T07:11:42.424Z,99124.09
2022-08-01T07:14:09.954Z,99123.81
2022-08-01T07:16:37.222Z,99119.41
2022-08-01T07:19:04.606Z,99118.78
2022-08-01T07:47:37.387Z,99111.81
2022-08-01T07:50:10.976Z,99107.53
2022-08-01T07:52:38.437Z,99104.06
2022-08-01T07:55:06.765Z,99104.66
2022-08-01T07:57:34.264Z,99101.66
2022-08-01T08:21:19.115Z,99086.44
2022-08-01T08:38:19.922Z,99085.38
2022-08-01T08:40:58.251Z,99073.09
2022-08-01T08:43:27.121Z,99079.69
2022-08-01T08:45:59.083Z,99082.47
2022-08-01T08:48:32.194Z,99082.81
2022-08-01T08:51:03.401Z,99074.69
2022-08-01T08:53:34.927Z,99078.63
2022-08-01T08:56:07.515Z,99079.66
2022-08-01T08:58:38.707Z,99077.47
2022-08-01T09:01:09.855Z,99071.84
2022-08-01T09:03:37.665Z,99066.50
2022-08-01T09:06:05.873Z,99075.66
2022-08-01T09:08:34.590Z,99070.91
2022-08-01T09:11:04.807Z,99068.34
2022-08-01T09:13:32.062Z,99073.34
2022-08-01T09:16:02.372Z,99068.25
2022-08-01T09:18:45.783Z,99069.84
2022-08-01T09:21:25.069Z,99063.53
2022-08-01T09:23:55.264Z,99066.69
2022-08-01T09:26:35.730Z,99071.28
2022-08-01T09:29:10.351Z,99071.47
2022-08-01T09:31:47.112Z,99070.63
2022-08-01T09:34:28.833Z,99071.03
2022-08-01T09:37:05.758Z,99070.38
2022-08-01T09:39:41.095Z,99068.00
2022-08-01T09:42:28.694Z,99067.59
2022-08-01T09:44:57.354Z,99059.63
2022-08-01T09:47:41.830Z,99064.06
2022-08-01T09:50:12.027Z,99060.63
2022-08-01T09:52:41.100Z,99059.59
2022-08-01T09:55:09.363Z,99059.78
2022-08-01T09:57:36.581Z,99058.34
2022-08-01T10:00:35.697Z,99052.59
2022-08-01T10:03:28.221Z,99051.59
2022-08-01T10:05:55.818Z,99058.00
2022-08-01T10:08:26.401Z,99053.34
2022-08-01T10:11:13.023Z,99040.75
2022-08-01T10:13:45.290Z,99037.59
2022-08-01T10:16:15.780Z,99045.50
2022-08-01T10:18:46.319Z,99039.19
2022-08-01T10:21:15.886Z,99044.00
2022-08-01T10:24:07.941Z,99039.66
2022-08-01T10:26:39.965Z,99030.53
2022-08-01T10:29:45.172Z,99030.53
2022-08-01T10:31:56.075Z,99035.31
2022-08-01T10:34:33.346Z,99041.66
2022-08-01T10:37:02.494Z,99039.28
2022-08-01T10:39:36.390Z,99037.69
2022-08-01T10:42:10.699Z,99036.91
2022-08-01T10:44:40.286Z,99035.28
2022-08-01T10:47:19.470Z,99041.63
2022-08-01T10:50:15.033Z,99032.94
2022-08-01T10:53:15.954Z,99028.94
2022-08-01T10:56:16.641Z,99021.81
2022-08-01T10:58:48.807Z,99032.94
2022-08-01T11:01:26.212Z,99028.13
2022-08-01T11:04:41.646Z,99027.38
2022-08-01T11:07:26.013Z,99020.22
2022-08-01T11:10:24.255Z,99027.38
2022-08-01T11:12:51.974Z,99032.09
2022-08-01T11:15:31.871Z,99029.34
2022-08-01T11:18:04.562Z,99032.13
2022-08-01T11:20:41.666Z,99031.28
2022-08-01T11:23:11.874Z,99036.06
2022-08-01T11:26:06.224Z,99031.72
2022-08-01T11:28:40.434Z,99032.13
2022-08-01T11:31:11.199Z,99029.72
2022-08-01T11:33:42.230Z,99026.47
2022-08-01T11:36:14.666Z,99033.19
2022-08-01T11:39:00.463Z,99027.25
2022-08-01T11:41:37.918Z,99029.19
2022-08-01T11:44:11.691Z,99021.63
2022-08-01T11:47:09.305Z,99023.06
2022-08-01T11:49:49.729Z,99034.94
2022-08-01T11:52:25.055Z,99033.28
2022-08-01T11:55:10.131Z,99033.94
2022-08-01T11:57:39.598Z,99033.13
2022-08-01T12:00:17.444Z,99036.22
2022-08-01T12:02:47.825Z,99027.06
2022-08-01T12:05:21.485Z,99025.00
2022-08-01T12:07:54.765Z,99027.16
2022-08-01T12:10:33.225Z,99037.66
2022-08-01T12:13:06.634Z,99033.44
2022-08-01T12:15:38.609Z,99033.66
2022-08-01T12:18:08.883Z,99039.75
2022-08-01T12:20:55.753Z,99044.25
2022-08-01T12:23:25.152Z,99048.72
2022-08-01T12:25:53.425Z,99045.28
2022-08-01T12:28:21.234Z,99049.88
2022-08-01T12:30:50.255Z,99046.09
2022-08-01T12:33:22.560Z,99048.03
2022-08-01T12:35:50.223Z,99040.69
2022-08-01T12:38:26.081Z,99042.44
2022-08-01T12:40:54.896Z,99040.47
2022-08-01T12:43:29.406Z,99050.03
2022-08-01T12:46:04.453Z,99039.09
2022-08-01T12:48:32.751Z,99037.44
2022-08-01T12:51:02.414Z,99040.59
2022-08-01T12:53:40.147Z,99043.72
2022-08-01T12:56:11.357Z,99037.22
2022-08-01T12:58:40.000Z,99035.47
2022-08-01T13:01:13.263Z,99031.00
2022-08-01T13:03:41.921Z,99030.56
2022-08-01T13:06:16.200Z,99038.00
2022-08-01T13:08:46.210Z,99037.44
2022-08-01T13:11:17.699Z,99027.50
2022-08-01T13:13:52.896Z,99030.59
2022-08-01T13:16:43.228Z,99018.91
2022-08-01T13:19:15.455Z,99019.38
2022-08-01T13:21:57.348Z,99019.88
2022-08-01T13:24:30.262Z,99019.50
2022-08-01T13:27:05.208Z,99016.31
2022-08-01T13:29:42.553Z,99020.38
2022-08-01T13:32:28.561Z,99019.69
2022-08-01T13:35:09.713Z,99022.06
2022-08-01T13:37:38.797Z,99018.00
2022-08-01T13:40:11.574Z,99015.97
2022-08-01T13:42:39.998Z,99014.06
2022-08-01T13:45:13.661Z,99022.81
2022-08-01T13:48:03.627Z,99014.72
2022-08-01T13:50:32.618Z,99015.91
2022-08-01T13:53:00.052Z,99014.06
2022-08-01T13:55:31.085Z,99016.06
2022-08-01T13:58:06.107Z,99021.06
2022-08-01T14:00:33.406Z,99018.94
2022-08-01T14:03:00.479Z,99022.06
2022-08-01T14:05:28.977Z,99007.88
2022-08-01T14:07:56.365Z,99015.53
2022-08-01T14:10:25.728Z,99013.19
2022-08-01T14:12:53.275Z,99017.97
2022-08-01T14:15:38.859Z,99022.06
2022-08-01T14:18:21.883Z,99023.31
2022-08-01T14:20:49.149Z,99019.44
2022-08-01T14:23:18.264Z,99021.53
2022-08-01T14:26:03.045Z,99017.50
2022-08-01T14:28:34.286Z,99015.56
2022-08-01T14:31:02.481Z,99016.25
2022-08-01T14:33:31.819Z,99026.91
2022-08-01T14:36:28.466Z,99029.59
2022-08-01T14:38:49.578Z,99020.03
2022-08-01T14:41:17.309Z,99031.88
2022-08-01T14:43:44.882Z,99031.06
2022-08-01T14:46:13.554Z,99025.16
2022-08-01T14:48:41.859Z,99022.91
2022-08-01T14:51:09.761Z,99025.00
2022-08-01T14:53:37.746Z,99018.00
2022-08-01T14:56:05.978Z,99029.06
2022-08-01T14:58:34.387Z,99021.78
2022-08-01T15:01:05.387Z,99019.63
2022-08-01T15:03:33.056Z,99021.94
2022-08-01T15:06:00.618Z,99015.56
2022-08-01T15:08:28.438Z,99023.69
2022-08-01T15:10:56.271Z,99021.78
2022-08-01T15:13:23.423Z,99026.06
2022-08-01T15:15:53.059Z,99022.25
2022-08-01T15:18:20.615Z,99019.13
2022-08-01T15:20:47.802Z,99026.69
2022-08-01T15:23:15.439Z,99029.03
2022-08-01T15:25:43.016Z,99023.91
2022-08-01T15:28:11.332Z,99030.25
2022-08-01T15:30:39.806Z,99033.31
2022-08-01T15:33:07.879Z,99034.84
2022-08-01T15:35:34.993Z,99032.56
2022-08-01T15:38:04.308Z,99027.09
2022-08-01T15:40:35.286Z,99023.22
2022-08-01T15:43:03.683Z,99026.16
2022-08-01T15:45:47.427Z,99024.53
2022-08-01T15:48:17.239Z,99010.28
2022-08-01T15:50:44.670Z,99014.91
2022-08-01T15:53:12.465Z,99021.97
2022-08-01T15:55:40.588Z,99025.47
2022-08-01T15:58:08.388Z,99026.56
2022-08-01T16:00:40.131Z,99018.66
2022-08-01T16:03:10.242Z,99013.97
2022-08-01T16:05:43.175Z,99025.00
2022-08-01T16:08:13.875Z,99018.59
2022-08-01T16:10:42.724Z,99016.88
2022-08-01T16:13:10.265Z,99013.66
2022-08-01T16:15:41.748Z,99021.84
2022-08-01T16:18:13.073Z,99024.53
2022-08-01T16:20:45.594Z,99021.28
2022-08-01T16:23:15.510Z,99012.47
2022-08-01T16:25:46.214Z,99006.84
2022-08-01T16:28:14.234Z,99018.72
2022-08-01T16:30:48.585Z,99010.78
2022-08-01T16:33:53.095Z,99022.59
2022-08-01T16:36:17.470Z,99023.31
2022-08-01T16:38:46.407Z,99021.63
2022-08-01T16:41:19.727Z,99021.50
2022-08-01T16:43:53.154Z,99028.06
2022-08-01T16:46:26.841Z,99027.56
2022-08-01T16:48:55.170Z,99028.97
2022-08-01T16:51:22.687Z,99036.25
2022-08-01T16:53:50.157Z,99036.53
2022-08-01T16:56:18.166Z,99033.91
2022-08-01T16:58:45.434Z,99040.00
2022-08-01T17:02:03.313Z,99040.97
2022-08-01T17:04:02.553Z,99043.44
2022-08-01T17:06:30.393Z,99048.00
2022-08-01T17:08:58.697Z,99052.50
2022-08-01T17:11:26.567Z,99057.72
2022-08-01T17:13:53.752Z,99051.53
2022-08-01T17:16:21.230Z,99057.16
2022-08-01T17:18:49.174Z,99054.97
2022-08-01T17:21:16.782Z,99054.69
2022-08-01T17:23:44.683Z,99057.69
2022-08-01T17:26:13.038Z,99063.81
2022-08-01T17:28:40.390Z,99066.69
2022-08-01T17:31:10.380Z,99064.06
2022-08-01T17:33:45.665Z,99074.22
2022-08-01T17:36:14.463Z,99072.53
2022-08-01T17:38:42.077Z,99078.66
2022-08-01T17:41:09.477Z,99080.06
2022-08-01T17:43:36.615Z,99082.53
2022-08-01T17:46:05.911Z,99089.66
2022-08-01T17:48:33.111Z,99090.88
2022-08-01T17:51:00.329Z,99092.13
2022-08-01T17:53:28.905Z,99089.41
2022-08-01T17:56:07.886Z,99084.41
2022-08-01T17:58:51.069Z,99084.22
2022-08-01T18:01:20.702Z,99086.41
2022-08-01T18:03:48.889Z,99086.22
2022-08-01T18:06:19.084Z,99080.16
2022-08-01T18:08:47.969Z,99079.53
2022-08-01T18:11:17.329Z,99096.13
2022-08-01T18:13:45.422Z,99087.53
2022-08-01T18:16:13.374Z,99086.88
2022-08-01T18:18:43.988Z,99092.53
2022-08-01T18:21:12.485Z,99098.59
2022-08-01T18:23:39.681Z,99095.19
2022-08-01T18:26:08.739Z,99094.16
2022-08-01T18:28:42.005Z,99094.50
2022-08-01T18:31:20.356Z,99109.81
2022-08-01T18:33:48.647Z,99103.63
2022-08-01T18:36:31.855Z,99112.31
2022-08-01T18:39:06.362Z,99119.88
2022-08-01T18:41:39.213Z,99114.09
2022-08-01T18:44:08.967Z,99112.25
2022-08-01T18:46:39.128Z,99115.88
2022-08-01T18:49:10.089Z,99117.94
2022-08-01T18:51:44.415Z,99125.22
2022-08-01T18:54:15.279Z,99129.19
2022-08-01T18:56:45.128Z,99128.13
2022-08-01T18:59:14.146Z,99142.03
2022-08-01T19:01:42.319Z,99140.19
2022-08-01T19:04:14.103Z,99139.94
2022-08-01T19:06:43.598Z,99146.72
2022-08-01T19:09:20.779Z,99155.00
2022-08-01T19:11:50.243Z,99164.22
2022-08-01T19:14:17.914Z,99151.41
2022-08-01T19:16:47.116Z,99162.56
2022-08-01T19:19:14.919Z,99154.06
2022-08-01T19:21:55.490Z,99153.75
2022-08-01T19:24:29.464Z,99155.09
2022-08-01T19:27:08.958Z,99155.63
2022-08-01T19:32:51.165Z,99163.69
2022-08-01T19:35:18.690Z,99165.38
2022-08-01T19:38:02.804Z,99168.59
2022-08-01T19:40:48.906Z,99176.19
2022-08-01T19:43:33.388Z,99180.72
2022-08-01T19:46:05.712Z,99172.22
2022-08-01T19:48:38.564Z,99177.88
2022-08-01T19:51:12.297Z,99175.31
2022-08-01T19:53:44.668Z,99179.84
2022-08-01T19:56:14.255Z,99182.75
2022-08-01T19:58:43.112Z,99175.19
2022-08-01T20:01:16.921Z,99180.84
2022-08-01T20:03:49.242Z,99175.50
2022-08-01T20:06:16.865Z,99177.28
2022-08-01T20:08:45.337Z,99181.78
2022-08-01T20:11:14.657Z,99178.91
2022-08-01T20:13:44.366Z,99185.38
2022-08-01T20:16:11.945Z,99193.72
2022-08-01T20:18:40.448Z,99193.56
2022-08-01T20:21:12.470Z,99190.19
2022-08-01T20:23:43.361Z,99195.50
2022-08-01T20:26:14.081Z,99198.06
2022-08-01T20:28:46.493Z,99192.75
2022-08-01T20:31:20.213Z,99199.53
2022-08-01T20:33:49.779Z,99199.38
2022-08-01T20:36:24.989Z,99200.34
2022-08-01T20:38:56.546Z,99208.69
2022-08-01T20:41:27.659Z,99209.66
2022-08-01T20:43:59.569Z,99203.50
2022-08-01T20:46:29.739Z,99206.38
2022-08-01T20:48:58.820Z,99206.25
2022-08-01T20:51:28.403Z,99204.78
2022-08-01T20:53:56.550Z,99206.84
2022-08-01T20:56:36.500Z,99205.88
2022-08-01T20:59:55.144Z,99204.41
2022-08-01T21:02:49.005Z,99212.25
2022-08-01T21:05:31.930Z,99209.53
2022-08-01T21:08:23.123Z,99222.50
2022-08-01T21:10:58.058Z,99218.63
2022-08-01T21:13:48.354Z,99228.88
2022-08-01T21:24:10.310Z,99228.75
2022-08-01T21:26:39.126Z,99230.84
2022-08-01T21:29:10.449Z,99232.91
2022-08-01T21:31:41.431Z,99230.31
2022-08-01T21:34:24.376Z,99232.34
2022-08-01T21:36:53.254Z,99230.56
2022-08-01T21:39:21.654Z,99229.59
2022-08-01T21:41:56.702Z,99227.78
2022-08-01T21:44:35.863Z,99225.97
2022-08-01T21:47:04.403Z,99229.97
2022-08-01T21:49:32.366Z,99229.47
2022-08-01T21:52:12.193Z,99236.16
2022-08-01T21:55:15.493Z,99234.66
2022-08-01T21:58:00.426Z,99239.41
2022-08-01T22:00:33.507Z,99232.97
2022-08-01T22:06:24.999Z,99238.47
2022-08-01T22:08:59.405Z,99241.31
2022-08-01T22:11:30.846Z,99249.00
2022-08-01T22:14:06.127Z,99254.56
2022-08-01T22:16:40.900Z,99250.03
2022-08-01T22:19:44.195Z,99249.81
2022-08-01T22:22:04.616Z,99254.28
2022-08-01T22:24:51.575Z,99263.38
2022-08-01T22:28:05.947Z,99265.63
2022-08-01T22:30:17.724Z,99252.28
2022-08-01T22:33:07.239Z,99252.09
2022-08-01T22:35:36.806Z,99260.06
2022-08-01T22:38:07.882Z,99252.50
2022-08-01T22:40:47.856Z,99253.09
2022-08-01T22:43:41.846Z,99253.69
2022-08-01T22:46:32.698Z,99251.91
2022-08-01T22:49:09.267Z,99251.69
2022-08-01T22:52:07.633Z,99255.00
2022-08-01T22:54:41.561Z,99249.88
2022-08-01T22:57:23.464Z,99245.84
2022-08-01T23:00:04.539Z,99244.84
2022-08-01T23:02:38.249Z,99240.00
2022-08-01T23:05:12.143Z,99236.78
2022-08-01T23:07:49.626Z,99234.66
2022-08-01T23:10:20.718Z,99236.34
2022-08-01T23:12:51.703Z,99236.97
2022-08-01T23:15:21.984Z,99233.22
2022-08-01T23:17:51.166Z,99229.50
2022-08-01T23:20:18.990Z,99237.19
2022-08-01T23:22:48.022Z,99240.00
2022-08-01T23:25:17.059Z,99244.94
2022-08-01T23:27:54.286Z,99241.19
2022-08-01T23:30:35.170Z,99245.63
2022-08-01T23:33:03.735Z,99249.44
2022-08-01T23:35:31.306Z,99245.72
2022-08-01T23:38:02.854Z,99245.22
2022-08-01T23:40:34.674Z,99251.25
2022-08-01T23:43:04.539Z,99246.91
2022-08-01T23:46:02.623Z,99255.69
2022-08-01T23:48:20.984Z,99251.34
2022-08-01T23:50:48.358Z,99254.63
2022-08-01T23:53:15.846Z,99253.03
2022-08-01T23:55:44.537Z,99253.63
2022-08-01T23:58:12.002Z,99255.84
